Time;durP1;ratioP1;P1;durP2;ratioP2;P2;SDS_P1;SDS_P2;PMS_P1;PMS_P2;Temp;Humidity;BMP_temperature;BMP_pressure;BME280_temperature;BME280_humidity;BME280_pressure;Samples;Min_cycle;Max_cycle;Signal;HPM_P1;HPM_P2
2023/01/01 00:02:20;;;;;;;61.43;29.63;;;;;;;;;;5009183;28;20277;-68
2023/01/01 00:04:47;;;;;;;54.77;22.80;;;;;;;;;;5005007;28;20265;-68
2023/01/01 00:07:12;;;;;;;50.17;20.75;;;;;;;;;;5004906;28;20749;-68
2023/01/01 00:12:21;;;;;;;83.75;41.22;;;;;;;;;;5008126;28;20339;-68
2023/01/01 00:14:46;;;;;;;49.33;22.50;;;;;;;;;;5007346;28;20021;-68
2023/01/01 00:17:11;;;;;;;52.93;21.23;;;;;;;;;;5007172;28;20845;-68
2023/01/01 00:19:37;;;;;;;44.10;20.13;;;;;;;;;;5005175;28;20261;-68
2023/01/01 00:22:02;;;;;;;36.28;16.42;;;;;;;;;;5004832;28;20014;-68
2023/01/01 00:24:27;;;;;;;31.90;14.05;;;;;;;;;;5007793;28;20386;-68
2023/01/01 00:26:52;;;;;;;29.43;13.43;;;;;;;;;;5010525;28;20085;-68
2023/01/01 00:29:18;;;;;;;28.17;12.60;;;;;;;;;;5007494;28;20295;-68
2023/01/01 00:31:44;;;;;;;29.20;10.33;;;;;;;;;;5007723;28;20292;-68
2023/01/01 00:34:09;;;;;;;20.20;10.70;;;;;;;;;;5010005;28;20257;-68
2023/01/01 00:36:35;;;;;;;19.50;7.78;;;;;;;;;;5006385;28;20363;-68
2023/01/01 00:39:00;;;;;;;18.50;7.57;;;;;;;;;;5009019;28;20022;-68
2023/01/01 00:41:26;;;;;;;13.00;5.20;;;;;;;;;;5004113;28;20705;-68
2023/01/01 00:43:51;;;;;;;9.80;4.23;;;;;;;;;;5006512;28;21854;-68
2023/01/01 00:46:16;;;;;;;10.83;5.30;;;;;;;;;;5027643;23;20308;-71
2023/01/01 00:48:41;;;;;;;12.52;4.93;;;;;;;;;;4986416;28;20261;-71
2023/01/01 00:51:06;;;;;;;12.63;4.10;;;;;;;;;;4993407;28;20093;-71
2023/01/01 00:53:32;;;;;;;8.38;3.85;;;;;;;;;;4995664;28;20253;-71
2023/01/01 00:55:57;;;;;;;9.85;2.85;;;;;;;;;;4990186;28;20022;-71
2023/01/01 00:58:23;;;;;;;13.10;4.20;;;;;;;;;;4995152;28;20177;-71
2023/01/01 01:00:49;;;;;;;3.10;2.05;;;;;;;;;;4994830;28;20019;-71
2023/01/01 01:03:26;;;;;;;5.32;3.22;;;;;;;;;;4995414;28;20235;-71
2023/01/01 01:06:07;;;;;;;11.35;3.88;;;;;;;;;;4992599;28;20011;-71
2023/01/01 01:08:33;;;;;;;4.25;2.53;;;;;;;;;;4994290;28;20065;-71
2023/01/01 01:11:06;;;;;;;9.30;3.20;;;;;;;;;;4997423;28;20534;-71
2023/01/01 01:13:32;;;;;;;6.68;3.53;;;;;;;;;;4987510;28;20513;-71
2023/01/01 01:15:57;;;;;;;11.13;2.80;;;;;;;;;;4996604;28;20022;-71
2023/01/01 01:18:22;;;;;;;10.70;3.73;;;;;;;;;;4996632;28;20296;-71
2023/01/01 01:20:51;;;;;;;18.67;7.30;;;;;;;;;;4993397;28;20292;-69
2023/01/01 01:23:16;;;;;;;9.63;2.83;;;;;;;;;;4996495;28;20261;-69
2023/01/01 01:25:41;;;;;;;5.03;2.58;;;;;;;;;;4995513;28;20030;-69
2023/01/01 01:28:06;;;;;;;8.63;3.57;;;;;;;;;;4995977;28;20029;-69
2023/01/01 01:30:31;;;;;;;9.43;3.23;;;;;;;;;;4992849;28;20681;-69
2023/01/01 01:32:57;;;;;;;10.70;3.10;;;;;;;;;;4995017;28;20323;-69
2023/01/01 01:35:22;;;;;;;4.47;1.83;;;;;;;;;;4995402;28;20035;-69
2023/01/01 01:37:47;;;;;;;6.50;2.37;;;;;;;;;;4993444;28;20026;-68
2023/01/01 01:40:16;;;;;;;7.25;2.15;;;;;;;;;;4994869;28;20267;-69
2023/01/01 01:42:43;;;;;;;6.82;2.30;;;;;;;;;;4994332;28;20018;-68
2023/01/01 01:45:09;;;;;;;4.60;1.88;;;;;;;;;;4996146;28;20026;-69
2023/01/01 01:47:38;;;;;;;14.93;3.95;;;;;;;;;;4993835;28;20033;-68
2023/01/01 01:50:12;;;;;;;12.85;5.13;;;;;;;;;;4996654;28;20014;-69
2023/01/01 01:52:40;;;;;;;13.98;4.95;;;;;;;;;;4994374;28;20381;-68
2023/01/01 01:55:06;;;;;;;12.70;5.95;;;;;;;;;;4995240;28;20037;-68
2023/01/01 01:57:32;;;;;;;10.02;3.97;;;;;;;;;;4993929;28;20034;-68
2023/01/01 01:59:58;;;;;;;7.15;2.40;;;;;;;;;;4995443;28;20073;-68
2023/01/01 02:02:37;;;;;;;2.90;1.58;;;;;;;;;;4995215;28;20026;-68
2023/01/01 02:05:03;;;;;;;6.30;2.43;;;;;;;;;;4994684;28;20025;-68
2023/01/01 02:07:31;;;;;;;8.73;1.52;;;;;;;;;;4993974;28;20034;-68
2023/01/01 02:09:56;;;;;;;2.97;1.38;;;;;;;;;;4992210;28;20053;-68
2023/01/01 02:12:22;;;;;;;5.50;1.40;;;;;;;;;;4989787;28;20432;-68
2023/01/01 02:14:47;;;;;;;1.95;0.93;;;;;;;;;;4987331;28;20084;-69
2023/01/01 02:17:33;;;;;;;3.53;1.10;;;;;;;;;;4986951;28;20038;-68
2023/01/01 02:20:04;;;;;;;2.78;1.25;;;;;;;;;;4990854;28;20277;-69
2023/01/01 02:22:29;;;;;;;7.10;1.55;;;;;;;;;;4990261;28;20029;-69
2023/01/01 02:25:16;;;;;;;5.63;1.43;;;;;;;;;;4984568;28;20426;-68
2023/01/01 02:27:43;;;;;;;3.25;1.02;;;;;;;;;;4994303;28;20277;-68
2023/01/01 02:30:09;;;;;;;5.38;1.05;;;;;;;;;;4994505;28;20025;-68
2023/01/01 02:32:38;;;;;;;4.75;1.30;;;;;;;;;;4995124;28;20208;-69
2023/01/01 02:37:51;;;;;;;7.28;1.60;;;;;;;;;;4997078;28;20395;-69
2023/01/01 02:40:17;;;;;;;1.90;0.65;;;;;;;;;;4995870;28;20018;-69
2023/01/01 02:42:43;;;;;;;8.75;1.15;;;;;;;;;;4997050;28;20493;-68
2023/01/01 02:45:09;;;;;;;2.97;0.95;;;;;;;;;;4996901;28;20030;-69
2023/01/01 02:47:36;;;;;;;2.00;0.70;;;;;;;;;;4995399;28;20026;-68
2023/01/01 02:50:05;;;;;;;5.57;2.05;;;;;;;;;;4996402;28;20403;-68
2023/01/01 02:52:44;;;;;;;5.63;0.70;;;;;;;;;;4993489;28;20023;-68
2023/01/01 02:55:33;;;;;;;5.63;1.35;;;;;;;;;;4993887;28;20359;-68
2023/01/01 03:00:18;;;;;;;4.53;1.45;;;;;;;;;;4999329;28;20109;-68
2023/01/01 03:00:54;;;;;;;4.35;0.82;;;;;;;;;;4992952;28;20026;-68
2023/01/01 03:03:26;;;;;;;4.07;1.50;;;;;;;;;;5000472;28;20105;-68
2023/01/01 03:08:43;;;;;;;5.00;1.17;;;;;;;;;;4994971;28;20493;-68
2023/01/01 03:11:09;;;;;;;6.18;2.47;;;;;;;;;;4995224;28;20031;-69
2023/01/01 03:13:50;;;;;;;3.63;0.88;;;;;;;;;;4996517;28;20022;-68
2023/01/01 03:16:27;;;;;;;9.45;1.10;;;;;;;;;;4993908;28;20422;-68
2023/01/01 03:19:11;;;;;;;4.70;1.05;;;;;;;;;;4997218;28;20031;-68
2023/01/01 03:21:40;;;;;;;10.18;1.33;;;;;;;;;;4990682;28;20031;-68
2023/01/01 03:24:06;;;;;;;1.90;1.37;;;;;;;;;;4997655;28;20026;-68
2023/01/01 03:26:34;;;;;;;7.78;1.63;;;;;;;;;;4992819;28;20033;-69
2023/01/01 03:29:00;;;;;;;2.72;1.08;;;;;;;;;;4994544;28;20379;-68
2023/01/01 03:31:25;;;;;;;6.03;1.05;;;;;;;;;;4995890;28;20026;-70
2023/01/01 03:34:02;;;;;;;3.35;1.15;;;;;;;;;;4997438;28;20558;-68
2023/01/01 03:36:32;;;;;;;6.50;1.30;;;;;;;;;;4976178;28;20109;-68
2023/01/01 03:39:00;;;;;;;4.63;1.42;;;;;;;;;;4996604;28;20022;-68
2023/01/01 03:41:31;;;;;;;7.32;1.33;;;;;;;;;;4994424;28;20124;-69
2023/01/01 03:44:22;;;;;;;6.68;1.40;;;;;;;;;;4998896;28;20026;-69
2023/01/01 03:46:48;;;;;;;9.18;0.80;;;;;;;;;;4994459;28;20038;-68
2023/01/01 03:49:14;;;;;;;3.38;1.23;;;;;;;;;;4992222;28;20045;-69
2023/01/01 03:51:48;;;;;;;4.90;1.42;;;;;;;;;;4995939;28;20082;-68
2023/01/01 03:54:29;;;;;;;6.40;1.75;;;;;;;;;;4995946;28;20109;-68
2023/01/01 03:57:15;;;;;;;2.63;1.17;;;;;;;;;;4994195;28;20018;-68
2023/01/01 03:59:50;;;;;;;6.72;1.60;;;;;;;;;;4945480;28;20113;-68
2023/01/01 04:02:18;;;;;;;1.20;0.57;;;;;;;;;;4992074;28;20030;-69
2023/01/01 04:04:44;;;;;;;1.73;0.90;;;;;;;;;;4989459;28;20408;-69
2023/01/01 04:07:09;;;;;;;4.00;1.27;;;;;;;;;;4993799;28;20041;-68
2023/01/01 04:09:36;;;;;;;6.57;1.17;;;;;;;;;;4992270;28;20061;-68
2023/01/01 04:12:03;;;;;;;5.82;1.30;;;;;;;;;;4995128;28;20038;-69
2023/01/01 04:14:32;;;;;;;7.75;1.25;;;;;;;;;;4988405;28;20030;-69
2023/01/01 04:16:58;;;;;;;4.10;1.20;;;;;;;;;;4997222;28;20037;-68
2023/01/01 04:19:24;;;;;;;3.08;0.60;;;;;;;;;;4995341;28;20038;-68
2023/01/01 04:21:49;;;;;;;6.53;1.00;;;;;;;;;;4993935;28;20121;-68
2023/01/01 04:24:14;;;;;;;3.83;1.40;;;;;;;;;;4995581;28;20089;-69
2023/01/01 04:26:39;;;;;;;4.97;1.50;;;;;;;;;;4992287;28;20277;-68
2023/01/01 04:29:05;;;;;;;5.40;1.48;;;;;;;;;;4995459;28;20284;-69
2023/01/01 04:31:30;;;;;;;4.45;1.20;;;;;;;;;;4995021;28;20022;-68
2023/01/01 04:33:55;;;;;;;8.60;1.70;;;;;;;;;;4995519;28;20122;-68
2023/01/01 04:36:20;;;;;;;1.70;0.63;;;;;;;;;;4994514;28;20279;-69
2023/01/01 04:38:45;;;;;;;3.57;1.60;;;;;;;;;;4993941;28;20997;-69
2023/01/01 04:41:10;;;;;;;4.43;0.93;;;;;;;;;;4995107;28;20384;-69
2023/01/01 04:43:36;;;;;;;3.67;1.13;;;;;;;;;;4996712;28;20348;-68
2023/01/01 04:46:01;;;;;;;8.07;1.60;;;;;;;;;;4995248;28;20293;-68
2023/01/01 04:48:27;;;;;;;2.67;1.55;;;;;;;;;;4994404;28;20273;-69
2023/01/01 04:50:56;;;;;;;6.78;1.20;;;;;;;;;;4990974;28;20033;-68
2023/01/01 04:53:21;;;;;;;10.18;1.42;;;;;;;;;;4993581;28;20550;-69
2023/01/01 04:55:46;;;;;;;6.78;1.63;;;;;;;;;;4994319;28;20038;-68
2023/01/01 04:58:12;;;;;;;4.10;0.82;;;;;;;;;;4992658;28;20026;-68
2023/01/01 05:00:37;;;;;;;4.30;1.17;;;;;;;;;;4994955;28;20026;-68
2023/01/01 05:03:02;;;;;;;2.60;0.90;;;;;;;;;;4991326;28;20505;-68
2023/01/01 05:05:27;;;;;;;7.38;1.40;;;;;;;;;;4996010;28;20026;-68
2023/01/01 05:07:52;;;;;;;4.03;1.27;;;;;;;;;;4993743;28;20586;-68
2023/01/01 05:10:18;;;;;;;3.80;1.40;;;;;;;;;;4996954;28;20029;-68
2023/01/01 05:12:43;;;;;;;6.13;1.57;;;;;;;;;;4990799;28;20274;-68
2023/01/01 05:15:08;;;;;;;2.80;1.47;;;;;;;;;;4995821;28;20641;-68
2023/01/01 05:17:33;;;;;;;5.50;1.38;;;;;;;;;;4993004;28;20333;-68
2023/01/01 05:19:59;;;;;;;4.30;1.20;;;;;;;;;;4993576;28;20443;-71
2023/01/01 05:22:24;;;;;;;2.97;1.17;;;;;;;;;;4988597;28;20327;-68
2023/01/01 05:24:49;;;;;;;3.67;0.80;;;;;;;;;;4975389;28;20026;-68
2023/01/01 05:27:14;;;;;;;7.68;1.15;;;;;;;;;;4993390;28;20411;-68
2023/01/01 05:29:39;;;;;;;5.17;1.80;;;;;;;;;;4993733;28;20070;-68
2023/01/01 05:32:05;;;;;;;2.03;0.87;;;;;;;;;;4994862;28;20780;-68
2023/01/01 05:34:30;;;;;;;1.43;0.80;;;;;;;;;;4995700;28;20278;-68
2023/01/01 05:36:56;;;;;;;2.28;1.20;;;;;;;;;;4993252;28;20309;-69
2023/01/01 05:39:21;;;;;;;5.70;1.38;;;;;;;;;;4993693;28;20048;-68
2023/01/01 05:41:46;;;;;;;6.75;1.38;;;;;;;;;;4976627;28;20030;-68
2023/01/01 05:44:11;;;;;;;6.93;1.60;;;;;;;;;;4992667;28;20026;-68
2023/01/01 05:46:37;;;;;;;9.20;1.20;;;;;;;;;;4994848;28;20390;-68
2023/01/01 05:49:03;;;;;;;3.13;1.42;;;;;;;;;;4996124;28;20349;-68
2023/01/01 05:51:28;;;;;;;8.15;1.35;;;;;;;;;;4994017;28;20050;-68
2023/01/01 05:53:54;;;;;;;6.30;1.80;;;;;;;;;;4994014;28;20034;-68
2023/01/01 05:56:19;;;;;;;7.50;2.15;;;;;;;;;;4998291;28;20070;-69
2023/01/01 05:58:44;;;;;;;3.15;1.65;;;;;;;;;;4993770;28;20034;-68
2023/01/01 06:01:17;;;;;;;3.78;1.40;;;;;;;;;;4997773;28;20073;-68
2023/01/01 06:03:42;;;;;;;6.15;1.40;;;;;;;;;;4995702;28;20022;-68
2023/01/01 06:06:09;;;;;;;4.50;1.73;;;;;;;;;;5000458;28;20025;-68
2023/01/01 06:08:34;;;;;;;1.10;0.70;;;;;;;;;;4997710;28;20093;-68
2023/01/01 06:11:00;;;;;;;3.73;1.13;;;;;;;;;;5002002;28;20113;-68
2023/01/01 06:13:25;;;;;;;1.65;0.70;;;;;;;;;;4991681;28;20277;-68
2023/01/01 06:15:54;;;;;;;8.00;1.90;;;;;;;;;;4996465;28;20376;-68
2023/01/01 06:18:19;;;;;;;5.28;0.75;;;;;;;;;;4997315;28;20034;-68
2023/01/01 06:20:44;;;;;;;2.70;0.90;;;;;;;;;;4997245;28;20518;-68
2023/01/01 06:23:10;;;;;;;7.63;1.47;;;;;;;;;;4994821;28;20265;-68
2023/01/01 06:25:35;;;;;;;3.10;1.37;;;;;;;;;;4999104;28;20624;-68
2023/01/01 06:28:00;;;;;;;7.93;1.40;;;;;;;;;;4992926;28;20282;-68
2023/01/01 06:30:25;;;;;;;3.37;1.10;;;;;;;;;;4997704;28;20312;-68
2023/01/01 06:32:52;;;;;;;2.00;0.80;;;;;;;;;;4996765;28;20772;-68
2023/01/01 06:35:17;;;;;;;6.43;0.77;;;;;;;;;;4998427;28;20534;-68
2023/01/01 06:37:42;;;;;;;2.00;1.17;;;;;;;;;;4994496;28;20093;-68
2023/01/01 06:40:07;;;;;;;1.87;1.00;;;;;;;;;;4996821;28;20360;-67
2023/01/01 06:42:33;;;;;;;1.63;0.68;;;;;;;;;;4995857;28;20649;-68
2023/01/01 06:44:58;;;;;;;2.27;1.23;;;;;;;;;;4997645;28;20085;-68
2023/01/01 06:47:23;;;;;;;7.50;1.50;;;;;;;;;;4998020;28;20265;-68
2023/01/01 06:49:48;;;;;;;4.77;1.70;;;;;;;;;;4996742;28;20280;-68
2023/01/01 06:52:13;;;;;;;2.80;0.93;;;;;;;;;;4999168;28;20303;-68
2023/01/01 06:54:38;;;;;;;7.90;1.70;;;;;;;;;;4993875;28;20701;-68
2023/01/01 06:57:04;;;;;;;11.13;1.83;;;;;;;;;;5000512;28;20685;-68
2023/01/01 06:59:29;;;;;;;14.47;1.90;;;;;;;;;;4996789;28;20364;-68
2023/01/01 07:01:54;;;;;;;5.30;1.13;;;;;;;;;;4996097;28;20301;-68
2023/01/01 07:04:19;;;;;;;7.47;1.10;;;;;;;;;;4995588;28;20272;-68
2023/01/01 07:06:44;;;;;;;4.20;0.65;;;;;;;;;;4996151;28;20304;-68
2023/01/01 07:09:10;;;;;;;3.10;0.83;;;;;;;;;;4999895;28;20108;-68
2023/01/01 07:11:35;;;;;;;1.10;0.82;;;;;;;;;;4976784;28;20273;-68
2023/01/01 07:14:01;;;;;;;7.72;1.25;;;;;;;;;;4985459;28;20034;-68
2023/01/01 07:16:26;;;;;;;1.73;0.68;;;;;;;;;;4988913;28;20558;-71
2023/01/01 07:18:51;;;;;;;4.10;0.93;;;;;;;;;;4991870;28;20105;-71
2023/01/01 07:21:30;;;;;;;10.45;1.17;;;;;;;;;;4996615;28;20038;-71
2023/01/01 07:23:59;;;;;;;7.82;2.30;;;;;;;;;;4995142;28;20018;-71
2023/01/01 07:26:24;;;;;;;4.97;1.63;;;;;;;;;;4996960;28;20125;-71
2023/01/01 07:28:50;;;;;;;6.95;1.83;;;;;;;;;;4993950;28;20053;-71
2023/01/01 07:31:15;;;;;;;11.75;1.77;;;;;;;;;;4997519;28;20651;-71
2023/01/01 07:33:40;;;;;;;5.15;1.50;;;;;;;;;;4995451;28;20494;-71
2023/01/01 07:36:06;;;;;;;8.00;1.80;;;;;;;;;;5001436;28;20033;-71
2023/01/01 07:38:31;;;;;;;7.43;1.33;;;;;;;;;;4994799;28;20291;-71
2023/01/01 07:40:56;;;;;;;4.38;1.92;;;;;;;;;;4997370;28;20022;-71
2023/01/01 07:43:21;;;;;;;4.23;1.63;;;;;;;;;;4993097;28;20340;-71
2023/01/01 07:45:46;;;;;;;7.93;1.53;;;;;;;;;;4998065;28;20273;-71
2023/01/01 07:48:13;;;;;;;5.80;1.40;;;;;;;;;;4995779;28;20347;-71
2023/01/01 07:50:38;;;;;;;8.50;2.20;;;;;;;;;;4995239;28;20347;-71
2023/01/01 07:53:04;;;;;;;4.45;1.73;;;;;;;;;;4997506;28;20014;-71
2023/01/01 07:55:29;;;;;;;5.45;1.50;;;;;;;;;;4993555;28;20047;-71
2023/01/01 07:57:54;;;;;;;10.33;1.37;;;;;;;;;;4996506;28;20025;-70
2023/01/01 08:00:20;;;;;;;7.20;1.50;;;;;;;;;;4998524;28;20364;-71
2023/01/01 08:02:45;;;;;;;3.67;1.83;;;;;;;;;;4994568;28;20337;-71
2023/01/01 08:05:10;;;;;;;6.82;1.98;;;;;;;;;;5000479;28;20056;-71
2023/01/01 08:07:36;;;;;;;8.20;1.80;;;;;;;;;;4993047;28;20513;-71
2023/01/01 08:10:02;;;;;;;6.95;2.15;;;;;;;;;;4981871;28;20396;-71
2023/01/01 08:12:27;;;;;;;8.90;2.85;;;;;;;;;;4996050;28;20703;-71
2023/01/01 08:14:52;;;;;;;10.20;1.80;;;;;;;;;;4993523;28;20034;-71
2023/01/01 08:17:17;;;;;;;14.85;2.28;;;;;;;;;;4996744;28;20376;-71
2023/01/01 08:19:46;;;;;;;9.50;1.57;;;;;;;;;;4988786;28;20049;-71
2023/01/01 08:22:11;;;;;;;7.70;1.67;;;;;;;;;;4975646;28;20284;-71
2023/01/01 08:24:36;;;;;;;2.77;1.07;;;;;;;;;;4994802;28;20434;-71
2023/01/01 08:27:01;;;;;;;12.93;2.60;;;;;;;;;;4995787;28;20288;-71
2023/01/01 08:29:26;;;;;;;3.33;1.23;;;;;;;;;;4999835;28;20281;-71
2023/01/01 08:31:52;;;;;;;2.80;1.70;;;;;;;;;;4997114;28;20470;-71
2023/01/01 08:34:17;;;;;;;7.47;2.00;;;;;;;;;;4995796;28;20289;-71
2023/01/01 08:36:42;;;;;;;5.43;1.20;;;;;;;;;;4995348;28;20022;-71
2023/01/01 08:39:08;;;;;;;8.30;1.83;;;;;;;;;;4998652;28;20308;-71
2023/01/01 08:41:33;;;;;;;4.00;1.42;;;;;;;;;;4992602;28;20416;-71
2023/01/01 08:43:58;;;;;;;3.92;1.13;;;;;;;;;;4994934;28;20018;-71
2023/01/01 08:46:23;;;;;;;1.77;1.23;;;;;;;;;;4996840;28;20145;-71
2023/01/01 08:48:48;;;;;;;5.85;1.10;;;;;;;;;;4980399;28;20292;-71
2023/01/01 08:51:14;;;;;;;7.90;1.77;;;;;;;;;;4993852;28;20057;-71
2023/01/01 08:53:39;;;;;;;5.95;1.63;;;;;;;;;;4994363;28;20350;-71
2023/01/01 08:56:06;;;;;;;4.30;0.70;;;;;;;;;;4999493;28;20325;-71
2023/01/01 08:58:32;;;;;;;9.38;2.15;;;;;;;;;;4995405;28;20037;-71
2023/01/01 09:00:58;;;;;;;4.68;0.82;;;;;;;;;;4996690;28;20022;-71
2023/01/01 09:03:23;;;;;;;8.02;2.15;;;;;;;;;;4994534;28;20110;-71
2023/01/01 09:05:48;;;;;;;6.97;1.95;;;;;;;;;;4995458;28;20023;-71
2023/01/01 09:08:14;;;;;;;12.67;2.17;;;;;;;;;;4995730;28;20056;-71
2023/01/01 09:10:41;;;;;;;5.88;1.85;;;;;;;;;;4994438;28;20333;-71
2023/01/01 09:13:07;;;;;;;8.52;3.45;;;;;;;;;;4992945;28;20018;-71
2023/01/01 09:15:32;;;;;;;8.13;2.13;;;;;;;;;;5001627;28;20074;-71
2023/01/01 09:17:57;;;;;;;9.13;2.10;;;;;;;;;;4995089;28;20539;-71
2023/01/01 09:20:22;;;;;;;5.17;1.70;;;;;;;;;;4994331;28;20304;-71
2023/01/01 09:22:47;;;;;;;12.43;1.57;;;;;;;;;;4978747;28;20373;-70
2023/01/01 09:25:12;;;;;;;12.10;1.53;;;;;;;;;;4995203;28;20753;-70
2023/01/01 09:27:38;;;;;;;5.50;2.08;;;;;;;;;;4996347;28;20264;-70
2023/01/01 09:30:03;;;;;;;7.05;2.28;;;;;;;;;;4993972;28;20036;-70
2023/01/01 09:32:28;;;;;;;9.05;2.15;;;;;;;;;;4996914;28;20841;-71
2023/01/01 09:34:55;;;;;;;10.93;2.70;;;;;;;;;;4994370;28;20382;-70
2023/01/01 09:37:20;;;;;;;11.13;1.73;;;;;;;;;;4998355;28;20030;-70
2023/01/01 09:39:45;;;;;;;6.37;2.10;;;;;;;;;;4997733;28;20406;-70
2023/01/01 09:42:23;;;;;;;2.70;0.93;;;;;;;;;;5002126;28;20281;-71
2023/01/01 09:44:51;;;;;;;5.57;1.52;;;;;;;;;;4997116;28;20061;-70
2023/01/01 09:47:25;;;;;;;10.77;1.75;;;;;;;;;;4998536;28;20034;-70
2023/01/01 09:49:51;;;;;;;6.72;1.60;;;;;;;;;;4996467;28;20041;-70
2023/01/01 09:52:18;;;;;;;13.90;2.22;;;;;;;;;;4997270;28;20037;-70
2023/01/01 09:54:46;;;;;;;10.90;1.83;;;;;;;;;;5001947;28;20133;-70
2023/01/01 09:57:12;;;;;;;9.05;1.23;;;;;;;;;;4997856;28;20022;-70
2023/01/01 09:59:39;;;;;;;4.43;1.20;;;;;;;;;;5001045;28;20474;-70
2023/01/01 10:02:23;;;;;;;6.18;2.00;;;;;;;;;;4999570;28;20109;-70
2023/01/01 10:05:00;;;;;;;6.35;1.60;;;;;;;;;;4996566;28;20045;-70
2023/01/01 10:07:34;;;;;;;3.92;1.10;;;;;;;;;;4995824;28;20037;-70
2023/01/01 10:10:18;;;;;;;8.43;2.67;;;;;;;;;;4993846;28;20045;-70
2023/01/01 10:13:04;;;;;;;9.27;2.10;;;;;;;;;;4995829;28;20423;-70
2023/01/01 10:15:31;;;;;;;9.82;1.67;;;;;;;;;;4994093;28;20034;-70
2023/01/01 10:17:58;;;;;;;7.60;2.58;;;;;;;;;;4999991;28;20026;-70
2023/01/01 10:20:45;;;;;;;8.25;2.03;;;;;;;;;;4999564;28;20033;-70
2023/01/01 10:23:14;;;;;;;6.45;1.70;;;;;;;;;;5000364;28;20505;-70
2023/01/01 10:25:40;;;;;;;3.35;1.35;;;;;;;;;;4991775;28;22058;-70
2023/01/01 10:28:11;;;;;;;5.45;1.58;;;;;;;;;;4989282;28;20105;-70
2023/01/01 10:30:36;;;;;;;8.68;2.10;;;;;;;;;;4995058;28;20077;-70
2023/01/01 10:33:01;;;;;;;7.13;1.50;;;;;;;;;;4995539;28;20018;-70
2023/01/01 10:35:33;;;;;;;8.82;1.55;;;;;;;;;;4991610;28;20291;-70
2023/01/01 10:37:59;;;;;;;1.70;0.82;;;;;;;;;;4990438;28;20030;-70
2023/01/01 10:40:27;;;;;;;9.93;1.35;;;;;;;;;;4987587;28;20029;-70
2023/01/01 10:42:54;;;;;;;6.65;2.17;;;;;;;;;;4984958;28;20031;-70
2023/01/01 10:45:40;;;;;;;1.88;0.68;;;;;;;;;;4995399;28;20101;-70
2023/01/01 10:48:14;;;;;;;3.55;1.20;;;;;;;;;;4989275;28;20034;-70
2023/01/01 10:50:43;;;;;;;3.97;1.17;;;;;;;;;;4996748;28;20013;-70
2023/01/01 10:53:27;;;;;;;1.80;0.88;;;;;;;;;;4992176;28;20122;-71
2023/01/01 10:56:01;;;;;;;5.07;1.40;;;;;;;;;;4990439;28;20097;-71
2023/01/01 10:58:43;;;;;;;5.75;1.50;;;;;;;;;;4997094;28;20033;-70
2023/01/01 11:01:10;;;;;;;7.85;1.48;;;;;;;;;;4993248;28;20026;-70
2023/01/01 11:03:35;;;;;;;2.95;0.80;;;;;;;;;;4992060;28;20390;-70
2023/01/01 11:06:01;;;;;;;8.45;1.48;;;;;;;;;;4996002;28;20033;-70
2023/01/01 11:08:28;;;;;;;4.25;1.40;;;;;;;;;;4993334;28;20470;-70
2023/01/01 11:10:54;;;;;;;3.92;1.67;;;;;;;;;;4995237;28;20029;-70
2023/01/01 11:13:20;;;;;;;4.93;1.23;;;;;;;;;;4991454;28;20033;-70
2023/01/01 11:15:45;;;;;;;4.22;0.95;;;;;;;;;;4989162;28;20022;-70
2023/01/01 11:18:12;;;;;;;7.32;1.92;;;;;;;;;;4988281;28;20026;-70
2023/01/01 11:20:37;;;;;;;6.05;0.77;;;;;;;;;;4995620;28;20022;-70
2023/01/01 11:23:21;;;;;;;11.27;1.58;;;;;;;;;;4993251;28;20018;-70
2023/01/01 11:26:05;;;;;;;6.53;1.90;;;;;;;;;;4988485;28;20120;-70
2023/01/01 11:28:33;;;;;;;8.07;1.60;;;;;;;;;;4988543;28;20387;-70
2023/01/01 11:31:16;;;;;;;4.03;1.10;;;;;;;;;;4988300;28;20057;-70
2023/01/01 11:33:43;;;;;;;12.40;1.88;;;;;;;;;;4996612;28;20029;-70
2023/01/01 11:36:09;;;;;;;8.80;1.30;;;;;;;;;;4994547;28;20030;-70
2023/01/01 11:38:34;;;;;;;13.32;2.10;;;;;;;;;;4993064;28;20032;-70
2023/01/01 11:41:04;;;;;;;8.95;2.40;;;;;;;;;;4994421;28;20018;-70
2023/01/01 11:43:29;;;;;;;;;;;;;;;;;;4986616;28;20024;-70
2023/01/01 11:45:56;;;;;;;9.15;1.45;;;;;;;;;;4990791;28;20356;-70
2023/01/01 11:48:29;;;;;;;5.88;1.20;;;;;;;;;;4987872;28;20037;-70
2023/01/01 11:50:56;;;;;;;7.53;1.63;;;;;;;;;;4995966;28;20015;-71
2023/01/01 11:53:21;;;;;;;10.00;1.15;;;;;;;;;;4992577;28;20511;-70
2023/01/01 11:55:52;;;;;;;4.45;1.00;;;;;;;;;;4990671;28;20043;-70
2023/01/01 11:58:35;;;;;;;8.70;1.33;;;;;;;;;;4988070;28;20026;-70
2023/01/01 12:01:03;;;;;;;7.28;0.82;;;;;;;;;;4989522;28;20019;-70
2023/01/01 12:03:34;;;;;;;6.45;1.05;;;;;;;;;;4990613;28;20162;-70
2023/01/01 12:06:18;;;;;;;6.50;1.38;;;;;;;;;;4996469;28;20021;-70
2023/01/01 12:09:03;;;;;;;4.63;0.47;;;;;;;;;;4989730;28;20102;-70
2023/01/01 12:11:28;;;;;;;8.57;1.90;;;;;;;;;;4979248;28;20042;-70
2023/01/01 12:14:00;;;;;;;12.52;1.67;;;;;;;;;;4980649;28;20144;-70
2023/01/01 12:16:42;;;;;;;13.05;1.50;;;;;;;;;;4983667;28;20065;-70
2023/01/01 12:19:25;;;;;;;5.80;1.20;;;;;;;;;;4994072;28;20073;-70
2023/01/01 12:21:53;;;;;;;10.20;2.33;;;;;;;;;;4998681;28;20406;-70
2023/01/01 12:24:18;;;;;;;6.93;1.50;;;;;;;;;;4994227;28;20031;-70
2023/01/01 12:26:43;;;;;;;3.35;0.90;;;;;;;;;;4995594;28;20066;-70
2023/01/01 12:29:09;;;;;;;14.00;1.70;;;;;;;;;;4997235;28;20060;-70
2023/01/01 12:31:43;;;;;;;6.82;1.30;;;;;;;;;;5000677;28;20351;-70
2023/01/01 12:34:24;;;;;;;3.40;0.80;;;;;;;;;;4994955;28;20395;-70
2023/01/01 12:37:09;;;;;;;2.75;1.10;;;;;;;;;;4995990;28;20524;-70
2023/01/01 12:39:53;;;;;;;14.93;1.60;;;;;;;;;;4991628;28;20151;-72
2023/01/01 12:42:21;;;;;;;6.32;1.42;;;;;;;;;;4999708;28;20022;-70
2023/01/01 12:45:05;;;;;;;11.63;3.72;;;;;;;;;;4995562;28;20051;-70
2023/01/01 12:47:49;;;;;;;5.20;0.98;;;;;;;;;;4992276;28;20026;-70
2023/01/01 12:50:23;;;;;;;12.38;1.80;;;;;;;;;;4994078;28;20019;-71
2023/01/01 12:53:07;;;;;;;5.88;1.35;;;;;;;;;;4991630;28;20026;-70
2023/01/01 12:55:51;;;;;;;3.53;0.95;;;;;;;;;;4993391;28;20026;-70
2023/01/01 12:58:17;;;;;;;8.60;1.70;;;;;;;;;;4993491;28;20030;-70
2023/01/01 13:00:49;;;;;;;5.25;0.98;;;;;;;;;;4997665;28;20055;-70
2023/01/01 13:03:20;;;;;;;9.35;1.10;;;;;;;;;;4992628;28;20034;-70
2023/01/01 13:05:49;;;;;;;3.45;0.98;;;;;;;;;;4990129;28;20019;-70
2023/01/01 13:08:14;;;;;;;7.07;1.42;;;;;;;;;;4997049;28;20026;-70
2023/01/01 13:10:41;;;;;;;3.20;0.98;;;;;;;;;;4998560;28;20025;-70
2023/01/01 13:13:07;;;;;;;7.53;2.20;;;;;;;;;;4975473;28;20158;-70
2023/01/01 13:15:38;;;;;;;11.57;2.13;;;;;;;;;;4995569;28;20225;-71
2023/01/01 13:18:04;;;;;;;9.75;1.58;;;;;;;;;;4995065;28;20027;-71
2023/01/01 13:20:30;;;;;;;12.32;2.40;;;;;;;;;;4991314;28;20034;-71
2023/01/01 13:22:55;;;;;;;6.25;1.00;;;;;;;;;;4996192;28;20026;-71
2023/01/01 13:25:22;;;;;;;6.90;1.17;;;;;;;;;;4990558;28;20037;-71
2023/01/01 13:27:56;;;;;;;6.43;1.38;;;;;;;;;;4993916;28;20425;-70
2023/01/01 13:30:37;;;;;;;16.05;1.85;;;;;;;;;;4993855;28;20037;-70
2023/01/01 13:33:25;;;;;;;7.72;1.50;;;;;;;;;;4997215;28;20029;-70
2023/01/01 13:36:06;;;;;;;5.10;1.50;;;;;;;;;;4994775;28;20634;-70
2023/01/01 13:38:43;;;;;;;5.50;1.38;;;;;;;;;;4994205;28;20030;-70
2023/01/01 13:41:37;;;;;;;6.43;1.60;;;;;;;;;;4982902;28;20045;-70
2023/01/01 13:44:02;;;;;;;12.98;1.67;;;;;;;;;;4972016;28;20547;-71
2023/01/01 13:46:31;;;;;;;7.97;1.65;;;;;;;;;;4974831;28;20122;-70
2023/01/01 13:49:15;;;;;;;9.88;1.63;;;;;;;;;;4986411;28;20106;-70
2023/01/01 13:51:40;;;;;;;2.92;1.15;;;;;;;;;;4980902;28;20486;-70
2023/01/01 13:54:08;;;;;;;7.85;1.85;;;;;;;;;;4995119;28;20161;-70
2023/01/01 13:56:47;;;;;;;3.30;1.55;;;;;;;;;;4985993;28;20027;-70
2023/01/01 13:59:15;;;;;;;10.52;1.65;;;;;;;;;;4992126;28;20026;-70
2023/01/01 14:01:43;;;;;;;2.55;0.98;;;;;;;;;;4982962;28;20362;-70
2023/01/01 14:04:34;;;;;;;6.00;1.45;;;;;;;;;;4995380;28;20551;-70
2023/01/01 14:07:05;;;;;;;13.95;2.95;;;;;;;;;;4985088;28;20399;-71
2023/01/01 14:09:31;;;;;;;9.27;2.20;;;;;;;;;;4970652;28;20026;-71
2023/01/01 14:12:06;;;;;;;8.37;2.57;;;;;;;;;;4988056;28;20029;-71
2023/01/01 14:14:33;;;;;;;15.52;3.75;;;;;;;;;;4996875;28;20299;-71
2023/01/01 14:17:00;;;;;;;8.60;2.78;;;;;;;;;;4976604;28;20030;-71
2023/01/01 14:19:26;;;;;;;16.67;4.25;;;;;;;;;;4989554;28;20041;-71
2023/01/01 14:21:52;;;;;;;10.07;3.65;;;;;;;;;;4993065;28;20482;-71
2023/01/01 14:24:18;;;;;;;6.75;2.28;;;;;;;;;;4992942;28;20027;-70
2023/01/01 14:26:44;;;;;;;9.30;1.65;;;;;;;;;;4993877;28;20534;-71
2023/01/01 14:29:15;;;;;;;11.43;2.20;;;;;;;;;;4995492;28;20113;-71
2023/01/01 14:31:45;;;;;;;6.88;1.48;;;;;;;;;;4997302;28;20022;-70
2023/01/01 14:34:15;;;;;;;7.00;1.83;;;;;;;;;;4992463;28;20030;-71
2023/01/01 14:36:48;;;;;;;7.20;1.35;;;;;;;;;;4997343;28;20037;-71
2023/01/01 14:39:21;;;;;;;9.55;2.10;;;;;;;;;;4986850;28;20054;-71
2023/01/01 14:41:47;;;;;;;6.55;1.60;;;;;;;;;;4990723;28;20493;-71
2023/01/01 14:44:13;;;;;;;17.42;2.50;;;;;;;;;;4998512;28;20034;-71
2023/01/01 14:46:39;;;;;;;7.95;1.67;;;;;;;;;;4995863;28;20130;-71
2023/01/01 14:49:08;;;;;;;3.50;0.80;;;;;;;;;;4994257;28;20026;-71
2023/01/01 14:51:33;;;;;;;5.85;1.15;;;;;;;;;;4992529;28;20048;-71
2023/01/01 14:54:00;;;;;;;11.30;1.88;;;;;;;;;;4994070;28;20022;-70
2023/01/01 14:56:28;;;;;;;16.38;3.20;;;;;;;;;;4985865;28;20019;-70
2023/01/01 14:59:05;;;;;;;7.32;2.33;;;;;;;;;;4995811;28;20033;-70